sensor_id;sensor_type;location;lat;lon;timestamp;pressure;altitude;pressure_sealevel;temperature;humidity
3668;BME280;24099;47.102;15.440;2022-11-04T00:02:08;96504.44;;;9.53;100.00
3668;BME280;24099;47.102;15.440;2022-11-04T00:04:37;96505.03;;;9.48;100.00
3668;BME280;24099;47.102;15.440;2022-11-04T00:07:06;96496.19;;;9.56;100.00
3668;BME280;24099;47.102;15.440;2022-11-04T00:09:53;96486.31;;;9.58;100.00
3668;BME280;24099;47.102;15.440;2022-11-04T00:12:21;96494.06;;;9.73;100.00
3668;BME280;24099;47.102;15.440;2022-11-04T00:14:51;96490.06;;;9.77;100.00
3668;BME280;24099;47.102;15.440;2022-11-04T00:17:19;96490.59;;;9.65;100.00
3668;BME280;24099;47.102;15.440;2022-11-04T00:19:50;96487.56;;;9.68;100.00
3668;BME280;24099;47.102;15.440;2022-11-04T00:22:38;96485.72;;;9.62;100.00
3668;BME280;24099;47.102;15.440;2022-11-04T00:25:24;96478.75;;;9.83;100.00
3668;BME280;24099;47.102;15.440;2022-11-04T00:28:11;96481.88;;;9.65;100.00
3668;BME280;24099;47.102;15.440;2022-11-04T00:30:57;96481.47;;;9.61;100.00
3668;BME280;24099;47.102;15.440;2022-11-04T00:33:48;96467.94;;;9.64;100.00
3668;BME280;24099;47.102;15.440;2022-11-04T00:36:18;96468.13;;;9.63;100.00
3668;BME280;24099;47.102;15.440;2022-11-04T00:38:46;96477.63;;;9.64;100.00
3668;BME280;24099;47.102;15.440;2022-11-04T00:41:14;96470.75;;;9.63;100.00
3668;BME280;24099;47.102;15.440;2022-11-04T00:43:56;96466.94;;;9.65;100.00
3668;BME280;24099;47.102;15.440;2022-11-04T00:46:25;96472.19;;;9.65;100.00
3668;BME280;24099;47.102;15.440;2022-11-04T00:48:53;96471.19;;;9.66;100.00
3668;BME280;24099;47.102;15.440;2022-11-04T00:51:22;96467.22;;;9.77;100.00
3668;BME280;24099;47.102;15.440;2022-11-04T00:53:51;96481.50;;;9.68;100.00
3668;BME280;24099;47.102;15.440;2022-11-04T00:56:19;96474.19;;;9.63;100.00
3668;BME280;24099;47.102;15.440;2022-11-04T00:58:47;96477.81;;;9.62;100.00
3668;BME280;24099;47.102;15.440;2022-11-04T01:01:16;96474.63;;;9.67;100.00
3668;BME280;24099;47.102;15.440;2022-11-04T01:03:46;96477.72;;;9.77;100.00
3668;BME280;24099;47.102;15.440;2022-11-04T01:06:14;96482.38;;;9.82;100.00
3668;BME280;24099;47.102;15.440;2022-11-04T01:08:43;96483.00;;;9.77;100.00
3668;BME280;24099;47.102;15.440;2022-11-04T01:11:11;96480.16;;;9.79;100.00
3668;BME280;24099;47.102;15.440;2022-11-04T01:13:40;96483.56;;;9.79;100.00
3668;BME280;24099;47.102;15.440;2022-11-04T01:16:09;96491.47;;;9.79;100.00
3668;BME280;24099;47.102;15.440;2022-11-04T01:18:38;96474.91;;;9.79;100.00
3668;BME280;24099;47.102;15.440;2022-11-04T01:21:08;96481.19;;;9.78;100.00
3668;BME280;24099;47.102;15.440;2022-11-04T01:23:37;96472.69;;;9.82;100.00
3668;BME280;24099;47.102;15.440;2022-11-04T01:26:08;96463.38;;;9.80;100.00
3668;BME280;24099;47.102;15.440;2022-11-04T01:28:38;96467.63;;;9.81;100.00
3668;BME280;24099;47.102;15.440;2022-11-04T01:31:06;96458.16;;;9.86;100.00
3668;BME280;24099;47.102;15.440;2022-11-04T01:33:34;96457.53;;;9.78;100.00
3668;BME280;24099;47.102;15.440;2022-11-04T01:36:03;96452.84;;;9.80;100.00
3668;BME280;24099;47.102;15.440;2022-11-04T01:38:33;96455.09;;;9.83;100.00
3668;BME280;24099;47.102;15.440;2022-11-04T01:41:01;96451.69;;;9.89;100.00
3668;BME280;24099;47.102;15.440;2022-11-04T01:43:49;96438.56;;;9.89;100.00
3668;BME280;24099;47.102;15.440;2022-11-04T01:46:27;96440.41;;;9.95;100.00
3668;BME280;24099;47.102;15.440;2022-11-04T01:48:58;96435.75;;;9.90;100.00
3668;BME280;24099;47.102;15.440;2022-11-04T01:51:29;96431.91;;;9.93;100.00
3668;BME280;24099;47.102;15.440;2022-11-04T01:53:59;96429.09;;;10.01;100.00
3668;BME280;24099;47.102;15.440;2022-11-04T01:56:27;96429.50;;;9.98;100.00
3668;BME280;24099;47.102;15.440;2022-11-04T01:59:01;96424.25;;;9.98;100.00
3668;BME280;24099;47.102;15.440;2022-11-04T02:01:29;96415.56;;;9.97;100.00
3668;BME280;24099;47.102;15.440;2022-11-04T02:03:58;96413.75;;;9.98;100.00
3668;BME280;24099;47.102;15.440;2022-11-04T02:06:47;96415.56;;;10.04;100.00
3668;BME280;24099;47.102;15.440;2022-11-04T02:09:17;96410.31;;;10.04;100.00
3668;BME280;24099;47.102;15.440;2022-11-04T02:11:46;96410.31;;;10.04;100.00
3668;BME280;24099;47.102;15.440;2022-11-04T02:14:33;96414.56;;;10.05;100.00
3668;BME280;24099;47.102;15.440;2022-11-04T02:17:09;96404.84;;;10.06;100.00
3668;BME280;24099;47.102;15.440;2022-11-04T02:20:03;96393.13;;;10.08;100.00
3668;BME280;24099;47.102;15.440;2022-11-04T02:23:05;96387.13;;;10.21;100.00
3668;BME280;24099;47.102;15.440;2022-11-04T02:32:02;96371.06;;;10.02;100.00
3668;BME280;24099;47.102;15.440;2022-11-04T02:34:39;96369.78;;;10.33;100.00
3668;BME280;24099;47.102;15.440;2022-11-04T02:37:13;96354.94;;;10.12;100.00
3668;BME280;24099;47.102;15.440;2022-11-04T02:39:50;96360.16;;;10.06;100.00
3668;BME280;24099;47.102;15.440;2022-11-04T02:42:26;96355.75;;;10.19;100.00
3668;BME280;24099;47.102;15.440;2022-11-04T02:45:03;96353.16;;;10.26;100.00
3668;BME280;24099;47.102;15.440;2022-11-04T02:47:42;96353.94;;;10.20;100.00
3668;BME280;24099;47.102;15.440;2022-11-04T02:50:16;96350.69;;;10.18;100.00
3668;BME280;24099;47.102;15.440;2022-11-04T02:52:54;96358.38;;;10.19;100.00
3668;BME280;24099;47.102;15.440;2022-11-04T02:55:26;96354.31;;;10.10;100.00
3668;BME280;24099;47.102;15.440;2022-11-04T02:57:58;96354.13;;;10.12;100.00
3668;BME280;24099;47.102;15.440;2022-11-04T03:00:28;96353.53;;;10.16;100.00
3668;BME280;24099;47.102;15.440;2022-11-04T03:03:00;96346.44;;;10.17;100.00
3668;BME280;24099;47.102;15.440;2022-11-04T03:05:32;96349.72;;;10.19;100.00
3668;BME280;24099;47.102;15.440;2022-11-04T03:08:04;96349.09;;;10.23;100.00
3668;BME280;24099;47.102;15.440;2022-11-04T03:10:34;96348.25;;;10.16;100.00
3668;BME280;24099;47.102;15.440;2022-11-04T03:13:07;96348.69;;;10.20;100.00
3668;BME280;24099;47.102;15.440;2022-11-04T03:15:39;96335.38;;;10.48;100.00
3668;BME280;24099;47.102;15.440;2022-11-04T03:18:16;96332.53;;;10.36;100.00
3668;BME280;24099;47.102;15.440;2022-11-04T03:20:48;96347.72;;;10.34;100.00
3668;BME280;24099;47.102;15.440;2022-11-04T03:23:17;96349.53;;;10.33;100.00
3668;BME280;24099;47.102;15.440;2022-11-04T03:25:47;96338.19;;;10.26;100.00
3668;BME280;24099;47.102;15.440;2022-11-04T03:28:29;96340.19;;;10.24;100.00
3668;BME280;24099;47.102;15.440;2022-11-04T03:31:03;96342.25;;;10.29;100.00
3668;BME280;24099;47.102;15.440;2022-11-04T03:33:37;96337.81;;;10.36;100.00
3668;BME280;24099;47.102;15.440;2022-11-04T03:36:07;96331.53;;;10.37;100.00
3668;BME280;24099;47.102;15.440;2022-11-04T03:38:35;96326.47;;;10.35;100.00
3668;BME280;24099;47.102;15.440;2022-11-04T03:41:08;96332.53;;;10.29;100.00
3668;BME280;24099;47.102;15.440;2022-11-04T03:43:39;96332.34;;;10.31;100.00
3668;BME280;24099;47.102;15.440;2022-11-04T03:46:08;96329.31;;;10.34;100.00
3668;BME280;24099;47.102;15.440;2022-11-04T03:48:37;96326.25;;;10.44;100.00
3668;BME280;24099;47.102;15.440;2022-11-04T03:51:05;96326.47;;;10.49;100.00
3668;BME280;24099;47.102;15.440;2022-11-04T03:53:33;96321.63;;;10.46;100.00
3668;BME280;24099;47.102;15.440;2022-11-04T03:56:30;96332.13;;;10.46;100.00
3668;BME280;24099;47.102;15.440;2022-11-04T03:59:14;96335.78;;;10.45;100.00
3668;BME280;24099;47.102;15.440;2022-11-04T04:01:52;96335.78;;;10.45;100.00
3668;BME280;24099;47.102;15.440;2022-11-04T04:04:27;96330.31;;;10.46;100.00
3668;BME280;24099;47.102;15.440;2022-11-04T04:07:00;96322.00;;;10.43;100.00
3668;BME280;24099;47.102;15.440;2022-11-04T04:09:36;96326.88;;;10.46;100.00
3668;BME280;24099;47.102;15.440;2022-11-04T04:12:11;96325.25;;;10.45;100.00
3668;BME280;24099;47.102;15.440;2022-11-04T04:14:45;96330.50;;;10.45;100.00
3668;BME280;24099;47.102;15.440;2022-11-04T04:17:18;96334.97;;;10.44;100.00
3668;BME280;24099;47.102;15.440;2022-11-04T04:19:53;96329.91;;;10.43;100.00
3668;BME280;24099;47.102;15.440;2022-11-04T04:22:24;96339.81;;;10.47;100.00
3668;BME280;24099;47.102;15.440;2022-11-04T04:24:57;96340.44;;;10.43;100.00
3668;BME280;24099;47.102;15.440;2022-11-04T04:27:44;96335.38;;;10.41;100.00
3668;BME280;24099;47.102;15.440;2022-11-04T04:30:15;96323.22;;;10.47;100.00
3668;BME280;24099;47.102;15.440;2022-11-04T04:32:44;96323.03;;;10.48;100.00
3668;BME280;24099;47.102;15.440;2022-11-04T04:35:14;96322.22;;;10.54;100.00
3668;BME280;24099;47.102;15.440;2022-11-04T04:38:02;96312.50;;;10.48;100.00
3668;BME280;24099;47.102;15.440;2022-11-04T04:40:48;96313.53;;;10.47;100.00
3668;BME280;24099;47.102;15.440;2022-11-04T04:43:37;96320.81;;;10.65;100.00
3668;BME280;24099;47.102;15.440;2022-11-04T04:46:24;96322.81;;;10.63;100.00
3668;BME280;24099;47.102;15.440;2022-11-04T04:48:52;96316.56;;;10.57;100.00
3668;BME280;24099;47.102;15.440;2022-11-04T04:51:22;96321.00;;;10.63;100.00
3668;BME280;24099;47.102;15.440;2022-11-04T04:53:51;96319.78;;;10.59;100.00
3668;BME280;24099;47.102;15.440;2022-11-04T04:56:18;96314.34;;;10.54;100.00
3668;BME280;24099;47.102;15.440;2022-11-04T04:58:46;96315.94;;;10.62;100.00
3668;BME280;24099;47.102;15.440;2022-11-04T05:01:13;96313.31;;;10.62;100.00
3668;BME280;24099;47.102;15.440;2022-11-04T05:03:41;96305.63;;;10.60;100.00
3668;BME280;24099;47.102;15.440;2022-11-04T05:06:10;96312.50;;;10.61;100.00
3668;BME280;24099;47.102;15.440;2022-11-04T05:08:39;96310.69;;;10.68;100.00
3668;BME280;24099;47.102;15.440;2022-11-04T05:11:06;96303.59;;;10.62;100.00
3668;BME280;24099;47.102;15.440;2022-11-04T05:13:34;96300.16;;;10.62;100.00
3668;BME280;24099;47.102;15.440;2022-11-04T05:16:04;96289.66;;;10.55;100.00
3668;BME280;24099;47.102;15.440;2022-11-04T05:18:33;96291.66;;;10.73;100.00
3668;BME280;24099;47.102;15.440;2022-11-04T05:21:03;96289.22;;;10.65;100.00
3668;BME280;24099;47.102;15.440;2022-11-04T05:23:32;96296.72;;;10.61;100.00
3668;BME280;24099;47.102;15.440;2022-11-04T05:26:02;96278.50;;;10.60;100.00
3668;BME280;24099;47.102;15.440;2022-11-04T05:28:31;96275.06;;;10.59;100.00
3668;BME280;24099;47.102;15.440;2022-11-04T05:31:02;96269.38;;;10.62;100.00
3668;BME280;24099;47.102;15.440;2022-11-04T05:33:31;96264.94;;;10.63;100.00
3668;BME280;24099;47.102;15.440;2022-11-04T05:36:05;96269.19;;;10.64;100.00
3668;BME280;24099;47.102;15.440;2022-11-04T05:38:33;96273.03;;;10.68;100.00
3668;BME280;24099;47.102;15.440;2022-11-04T05:41:04;96272.63;;;10.71;100.00
3668;BME280;24099;47.102;15.440;2022-11-04T05:43:33;96271.63;;;10.72;100.00
3668;BME280;24099;47.102;15.440;2022-11-04T05:46:03;96273.03;;;10.68;100.00
3668;BME280;24099;47.102;15.440;2022-11-04T05:48:30;96269.38;;;10.69;100.00
3668;BME280;24099;47.102;15.440;2022-11-04T05:50:58;96267.97;;;10.73;100.00
3668;BME280;24099;47.102;15.440;2022-11-04T05:53:27;96267.56;;;10.76;100.00
3668;BME280;24099;47.102;15.440;2022-11-04T05:55:54;96271.00;;;10.77;100.00
3668;BME280;24099;47.102;15.440;2022-11-04T05:58:24;96275.84;;;10.93;100.00
3668;BME280;24099;47.102;15.440;2022-11-04T06:00:52;96275.03;;;10.92;100.00
3668;BME280;24099;47.102;15.440;2022-11-04T06:03:20;96275.78;;;10.99;100.00
3668;BME280;24099;47.102;15.440;2022-11-04T06:05:48;96279.22;;;11.07;100.00
3668;BME280;24099;47.102;15.440;2022-11-04T06:08:16;96291.78;;;11.04;100.00
3668;BME280;24099;47.102;15.440;2022-11-04T06:10:43;96282.47;;;11.09;100.00
3668;BME280;24099;47.102;15.440;2022-11-04T06:13:11;96279.03;;;11.08;100.00
3668;BME280;24099;47.102;15.440;2022-11-04T06:15:40;96272.94;;;11.08;100.00
3668;BME280;24099;47.102;15.440;2022-11-04T06:18:08;96273.16;;;11.13;100.00
3668;BME280;24099;47.102;15.440;2022-11-04T06:20:36;96268.09;;;11.11;100.00
3668;BME280;24099;47.102;15.440;2022-11-04T06:23:04;96276.19;;;11.10;100.00
3668;BME280;24099;47.102;15.440;2022-11-04T06:25:32;96270.31;;;11.14;100.00
3668;BME280;24099;47.102;15.440;2022-11-04T06:28:01;96274.16;;;11.12;100.00
3668;BME280;24099;47.102;15.440;2022-11-04T06:30:30;96275.56;;;11.14;100.00
3668;BME280;24099;47.102;15.440;2022-11-04T06:33:00;96277.59;;;11.12;100.00
3668;BME280;24099;47.102;15.440;2022-11-04T06:35:29;96287.94;;;11.14;100.00
3668;BME280;24099;47.102;15.440;2022-11-04T06:37:56;96298.88;;;11.17;100.00
3668;BME280;24099;47.102;15.440;2022-11-04T06:40:24;96301.72;;;11.16;100.00
3668;BME280;24099;47.102;15.440;2022-11-04T06:42:53;96294.00;;;11.14;100.00
3668;BME280;24099;47.102;15.440;2022-11-04T06:45:21;96292.34;;;11.20;100.00
3668;BME280;24099;47.102;15.440;2022-11-04T06:47:50;96293.16;;;11.20;100.00
3668;BME280;24099;47.102;15.440;2022-11-04T06:50:19;96289.72;;;11.20;100.00
3668;BME280;24099;47.102;15.440;2022-11-04T06:52:47;96273.31;;;11.24;100.00
3668;BME280;24099;47.102;15.440;2022-11-04T06:55:14;96273.50;;;11.29;100.00
3668;BME280;24099;47.102;15.440;2022-11-04T06:57:42;96270.66;;;11.24;100.00
3668;BME280;24099;47.102;15.440;2022-11-04T07:00:11;96278.16;;;11.34;100.00
3668;BME280;24099;47.102;15.440;2022-11-04T07:02:38;96278.56;;;11.31;100.00
3668;BME280;24099;47.102;15.440;2022-11-04T07:05:07;96273.28;;;11.31;100.00
3668;BME280;24099;47.102;15.440;2022-11-04T07:07:36;96272.66;;;11.35;100.00
3668;BME280;24099;47.102;15.440;2022-11-04T07:10:05;96274.50;;;11.35;100.00
3668;BME280;24099;47.102;15.440;2022-11-04T07:12:33;96268.38;;;11.41;100.00
3668;BME280;24099;47.102;15.440;2022-11-04T07:15:00;96265.13;;;11.39;100.00
3668;BME280;24099;47.102;15.440;2022-11-04T07:17:28;96265.09;;;11.52;100.00
3668;BME280;24099;47.102;15.440;2022-11-04T07:19:56;96258.44;;;11.43;100.00
3668;BME280;24099;47.102;15.440;2022-11-04T07:22:23;96259.63;;;11.47;100.00
3668;BME280;24099;47.102;15.440;2022-11-04T07:24:52;96256.00;;;11.42;100.00
3668;BME280;24099;47.102;15.440;2022-11-04T07:27:20;96252.78;;;11.39;100.00
3668;BME280;24099;47.102;15.440;2022-11-04T07:29:48;96242.03;;;11.41;100.00
3668;BME280;24099;47.102;15.440;2022-11-04T07:32:15;96249.09;;;11.47;100.00
3668;BME280;24099;47.102;15.440;2022-11-04T07:34:43;96248.47;;;11.52;100.00
3668;BME280;24099;47.102;15.440;2022-11-04T07:37:11;96249.28;;;11.52;100.00
3668;BME280;24099;47.102;15.440;2022-11-04T07:39:41;96237.97;;;11.45;100.00
3668;BME280;24099;47.102;15.440;2022-11-04T07:42:10;96237.97;;;11.45;100.00
3668;BME280;24099;47.102;15.440;2022-11-04T07:44:40;96229.84;;;11.47;100.00
3668;BME280;24099;47.102;15.440;2022-11-04T07:47:08;96223.53;;;11.54;100.00
3668;BME280;24099;47.102;15.440;2022-11-04T07:49:35;96234.50;;;11.51;100.00
3668;BME280;24099;47.102;15.440;2022-11-04T07:52:04;96217.66;;;11.52;100.00
3668;BME280;24099;47.102;15.440;2022-11-04T07:54:32;96222.31;;;11.57;100.00
3668;BME280;24099;47.102;15.440;2022-11-04T07:57:01;96211.78;;;11.50;100.00
3668;BME280;24099;47.102;15.440;2022-11-04T07:59:30;96203.28;;;11.48;100.00
3668;BME280;24099;47.102;15.440;2022-11-04T08:01:59;96215.22;;;11.57;100.00
3668;BME280;24099;47.102;15.440;2022-11-04T08:04:27;96207.13;;;11.52;100.00
3668;BME280;24099;47.102;15.440;2022-11-04T08:06:55;96205.50;;;11.51;100.00
3668;BME280;24099;47.102;15.440;2022-11-04T08:09:23;96209.13;;;11.57;100.00
3668;BME280;24099;47.102;15.440;2022-11-04T08:11:51;96201.59;;;11.60;100.00
3668;BME280;24099;47.102;15.440;2022-11-04T08:14:19;96199.97;;;11.59;100.00
3668;BME280;24099;47.102;15.440;2022-11-04T08:16:51;96192.25;;;11.64;100.00
3668;BME280;24099;47.102;15.440;2022-11-04T08:19:19;96190.22;;;11.60;100.00
3668;BME280;24099;47.102;15.440;2022-11-04T08:21:50;96169.00;;;11.55;100.00
3668;BME280;24099;47.102;15.440;2022-11-04T08:24:18;96163.25;;;11.64;100.00
3668;BME280;24099;47.102;15.440;2022-11-04T08:26:46;96157.66;;;11.54;100.00
3668;BME280;24099;47.102;15.440;2022-11-04T08:29:14;96149.16;;;11.52;100.00
3668;BME280;24099;47.102;15.440;2022-11-04T08:31:42;96153.41;;;11.53;100.00
3668;BME280;24099;47.102;15.440;2022-11-04T08:34:12;96150.94;;;11.58;100.00
3668;BME280;24099;47.102;15.440;2022-11-04T08:36:43;96150.69;;;11.60;100.00
3668;BME280;24099;47.102;15.440;2022-11-04T08:39:11;96150.50;;;11.61;100.00
3668;BME280;24099;47.102;15.440;2022-11-04T08:41:41;96144.38;;;11.67;100.00
3668;BME280;24099;47.102;15.440;2022-11-04T08:44:11;96147.91;;;11.55;100.00
3668;BME280;24099;47.102;15.440;2022-11-04T08:46:42;96141.25;;;11.52;100.00
3668;BME280;24099;47.102;15.440;2022-11-04T08:49:12;96128.06;;;11.52;100.00
3668;BME280;24099;47.102;15.440;2022-11-04T08:51:43;96121.56;;;11.55;100.00
3668;BME280;24099;47.102;15.440;2022-11-04T08:54:13;96118.22;;;11.66;100.00
3668;BME280;24099;47.102;15.440;2022-11-04T08:56:40;96106.97;;;11.52;100.00
3668;BME280;24099;47.102;15.440;2022-11-04T08:59:09;96108.09;;;11.63;100.00
3668;BME280;24099;47.102;15.440;2022-11-04T09:01:37;96098.22;;;11.58;100.00
3668;BME280;24099;47.102;15.440;2022-11-04T09:04:05;96096.53;;;11.64;100.00
3668;BME280;24099;47.102;15.440;2022-11-04T09:06:37;96095.13;;;11.61;100.00
3668;BME280;24099;47.102;15.440;2022-11-04T09:09:07;96073.53;;;11.53;100.00
3668;BME280;24099;47.102;15.440;2022-11-04T09:11:38;96071.72;;;11.53;100.00
3668;BME280;24099;47.102;15.440;2022-11-04T09:14:06;96080.25;;;11.73;100.00
3668;BME280;24099;47.102;15.440;2022-11-04T09:16:35;96077.66;;;11.67;100.00
3668;BME280;24099;47.102;15.440;2022-11-04T09:19:03;96069.00;;;11.60;100.00
3668;BME280;24099;47.102;15.440;2022-11-04T09:21:31;96074.41;;;11.71;100.00
3668;BME280;24099;47.102;15.440;2022-11-04T09:24:04;96074.31;;;11.85;100.00
3668;BME280;24099;47.102;15.440;2022-11-04T09:26:33;96061.59;;;11.50;100.00
3668;BME280;24099;47.102;15.440;2022-11-04T09:29:00;96057.13;;;11.51;100.00
3668;BME280;24099;47.102;15.440;2022-11-04T09:31:30;96045.22;;;11.42;100.00
3668;BME280;24099;47.102;15.440;2022-11-04T09:33:58;96039.91;;;11.48;100.00
3668;BME280;24099;47.102;15.440;2022-11-04T09:36:25;96045.84;;;11.68;100.00
3668;BME280;24099;47.102;15.440;2022-11-04T09:38:54;96046.34;;;11.59;100.00
3668;BME280;24099;47.102;15.440;2022-11-04T09:41:41;96025.13;;;11.47;100.00
3668;BME280;24099;47.102;15.440;2022-11-04T09:44:21;96016.97;;;11.55;100.00
3668;BME280;24099;47.102;15.440;2022-11-04T09:46:51;96031.91;;;11.61;100.00
3668;BME280;24099;47.102;15.440;2022-11-04T09:49:20;96029.38;;;11.73;100.00
3668;BME280;24099;47.102;15.440;2022-11-04T09:51:50;96024.00;;;11.61;100.00
3668;BME280;24099;47.102;15.440;2022-11-04T09:54:21;96018.59;;;11.56;100.00
3668;BME280;24099;47.102;15.440;2022-11-04T09:56:54;96011.69;;;11.55;100.00
3668;BME280;24099;47.102;15.440;2022-11-04T09:59:26;96008.94;;;11.68;100.00
3668;BME280;24099;47.102;15.440;2022-11-04T10:02:04;95996.69;;;11.56;100.00
3668;BME280;24099;47.102;15.440;2022-11-04T10:04:49;95984.03;;;11.39;100.00
3668;BME280;24099;47.102;15.440;2022-11-04T10:07:31;95991.41;;;11.56;100.00
3668;BME280;24099;47.102;15.440;2022-11-04T10:10:11;95991.63;;;11.54;100.00
3668;BME280;24099;47.102;15.440;2022-11-04T10:12:56;95983.63;;;11.43;100.00
3668;BME280;24099;47.102;15.440;2022-11-04T10:15:40;95976.13;;;11.39;100.00
3668;BME280;24099;47.102;15.440;2022-11-04T10:18:19;95976.47;;;11.50;100.00
3668;BME280;24099;47.102;15.440;2022-11-04T10:20:57;95979.38;;;11.42;100.00
3668;BME280;24099;47.102;15.440;2022-11-04T10:23:33;95980.16;;;11.42;100.00
3668;BME280;24099;47.102;15.440;2022-11-04T10:26:08;95976.13;;;11.39;100.00
3668;BME280;24099;47.102;15.440;2022-11-04T10:28:43;95973.63;;;11.26;100.00
3668;BME280;24099;47.102;15.440;2022-11-04T10:31:14;95953.97;;;11.29;100.00
3668;BME280;24099;47.102;15.440;2022-11-04T10:33:46;95954.59;;;11.24;100.00
3668;BME280;24099;47.102;15.440;2022-11-04T10:36:16;95944.81;;;11.31;100.00
3668;BME280;24099;47.102;15.440;2022-11-04T10:38:47;95947.16;;;11.39;100.00
3668;BME280;24099;47.102;15.440;2022-11-04T10:41:27;95947.50;;;11.25;100.00
3668;BME280;24099;47.102;15.440;2022-11-04T10:44:03;95940.56;;;11.30;100.00
3668;BME280;24099;47.102;15.440;2022-11-04T10:46:46;95938.00;;;11.24;100.00
3668;BME280;24099;47.102;15.440;2022-11-04T10:52:08;95918.63;;;11.36;100.00
3668;BME280;24099;47.102;15.440;2022-11-04T10:54:40;95907.44;;;11.41;100.00
3668;BME280;24099;47.102;15.440;2022-11-04T10:57:09;95902.09;;;11.48;100.00
3668;BME280;24099;47.102;15.440;2022-11-04T10:59:48;95900.41;;;11.35;100.00
3668;BME280;24099;47.102;15.440;2022-11-04T11:02:21;95893.38;;;11.29;100.00
3668;BME280;24099;47.102;15.440;2022-11-04T11:05:20;95884.72;;;11.22;100.00
3668;BME280;24099;47.102;15.440;2022-11-04T11:07:50;95870.75;;;11.39;100.00
3668;BME280;24099;47.102;15.440;2022-11-04T11:10:20;95874.88;;;11.35;100.00
3668;BME280;24099;47.102;15.440;2022-11-04T11:12:57;95878.16;;;11.31;100.00
3668;BME280;24099;47.102;15.440;2022-11-04T11:15:33;95875.22;;;11.39;100.00
3668;BME280;24099;47.102;15.440;2022-11-04T11:18:15;95875.91;;;11.34;100.00
3668;BME280;24099;47.102;15.440;2022-11-04T11:20:49;95861.63;;;11.42;100.00
3668;BME280;24099;47.102;15.440;2022-11-04T11:23:37;95862.56;;;11.29;100.00
3668;BME280;24099;47.102;15.440;2022-11-04T11:26:07;95860.00;;;11.23;100.00
3668;BME280;24099;47.102;15.440;2022-11-04T11:28:35;95851.44;;;11.27;100.00
3668;BME280;24099;47.102;15.440;2022-11-04T11:31:10;95850.38;;;11.35;100.00
3668;BME280;24099;47.102;15.440;2022-11-04T11:33:48;95868.44;;;11.31;100.00
3668;BME280;24099;47.102;15.440;2022-11-04T11:36:21;95873.19;;;11.41;100.00
3668;BME280;24099;47.102;15.440;2022-11-04T11:38:58;95869.31;;;11.44;100.00
3668;BME280;24099;47.102;15.440;2022-11-04T11:41:29;95876.03;;;11.39;100.00
3668;BME280;24099;47.102;15.440;2022-11-04T11:44:05;95875.38;;;11.26;100.00
3668;BME280;24099;47.102;15.440;2022-11-04T11:46:36;95878.97;;;11.31;100.00
3668;BME280;24099;47.102;15.440;2022-11-04T11:49:23;95877.50;;;11.35;100.00
3668;BME280;24099;47.102;15.440;2022-11-04T11:51:53;95853.00;;;11.35;100.00
3668;BME280;24099;47.102;15.440;2022-11-04T11:54:28;95852.47;;;11.45;100.00
3668;BME280;24099;47.102;15.440;2022-11-04T11:57:00;95851.81;;;11.31;100.00
3668;BME280;24099;47.102;15.440;2022-11-04T11:59:37;95848.75;;;11.34;100.00
3668;BME280;24099;47.102;15.440;2022-11-04T12:02:23;95842.53;;;11.28;100.00
3668;BME280;24099;47.102;15.440;2022-11-04T12:04:53;95850.50;;;11.40;100.00
3668;BME280;24099;47.102;15.440;2022-11-04T12:07:27;95833.97;;;11.33;100.00
3668;BME280;24099;47.102;15.440;2022-11-04T12:10:05;95834.78;;;11.33;100.00
3668;BME280;24099;47.102;15.440;2022-11-04T12:12:43;95837.31;;;11.40;100.00
3668;BME280;24099;47.102;15.440;2022-11-04T12:15:26;95823.22;;;11.53;100.00
3668;BME280;24099;47.102;15.440;2022-11-04T12:18:09;95819.19;;;11.50;100.00
3668;BME280;24099;47.102;15.440;2022-11-04T12:20:49;95814.78;;;11.44;100.00
3668;BME280;24099;47.102;15.440;2022-11-04T12:23:23;95812.91;;;11.33;100.00
3668;BME280;24099;47.102;15.440;2022-11-04T12:26:02;95813.97;;;11.44;100.00
3668;BME280;24099;47.102;15.440;2022-11-04T12:28:42;95814.19;;;11.42;100.00
3668;BME280;24099;47.102;15.440;2022-11-04T12:31:22;95804.84;;;11.46;100.00
3668;BME280;24099;47.102;15.440;2022-11-04T12:34:01;95808.50;;;11.45;100.00
3668;BME280;24099;47.102;15.440;2022-11-04T12:36:41;95804.25;;;11.44;100.00
3668;BME280;24099;47.102;15.440;2022-11-04T12:39:29;95808.66;;;11.50;100.00
3668;BME280;24099;47.102;15.440;2022-11-04T12:42:10;95812.25;;;11.37;100.00
3668;BME280;24099;47.102;15.440;2022-11-04T12:44:47;95803.22;;;11.45;100.00
3668;BME280;24099;47.102;15.440;2022-11-04T12:47:25;95813.06;;;11.38;100.00
3668;BME280;24099;47.102;15.440;2022-11-04T12:50:19;95811.44;;;11.37;100.00
3668;BME280;24099;47.102;15.440;2022-11-04T12:53:14;95817.84;;;11.41;100.00
3668;BME280;24099;47.102;15.440;2022-11-04T12:55:49;95821.66;;;11.45;100.00
3668;BME280;24099;47.102;15.440;2022-11-04T12:58:31;95821.50;;;11.40;100.00
3668;BME280;24099;47.102;15.440;2022-11-04T13:01:05;95827.03;;;11.38;100.00
3668;BME280;24099;47.102;15.440;2022-11-04T13:03:44;95838.94;;;11.41;100.00
3668;BME280;24099;47.102;15.440;2022-11-04T13:06:18;95839.41;;;11.38;100.00
3668;BME280;24099;47.102;15.440;2022-11-04T13:08:55;95861.50;;;11.55;100.00
3668;BME280;24099;47.102;15.440;2022-11-04T13:11:28;95869.03;;;11.52;100.00
3668;BME280;24099;47.102;15.440;2022-11-04T13:14:01;95880.00;;;11.49;100.00
3668;BME280;24099;47.102;15.440;2022-11-04T13:16:34;95879.94;;;11.73;100.00
3668;BME280;24099;47.102;15.440;2022-11-04T13:19:06;95888.78;;;11.61;100.00
3668;BME280;24099;47.102;15.440;2022-11-04T13:21:37;95881.81;;;11.48;100.00
3668;BME280;24099;47.102;15.440;2022-11-04T13:24:16;95869.94;;;11.39;100.00
3668;BME280;24099;47.102;15.440;2022-11-04T13:26:49;95863.09;;;11.38;100.00
3668;BME280;24099;47.102;15.440;2022-11-04T13:29:20;95864.72;;;11.57;100.00
3668;BME280;24099;47.102;15.440;2022-11-04T13:31:54;95872.84;;;11.56;100.00